sensor_id;sensor_type;location;lat;lon;timestamp;P1;durP1;ratioP1;P2;durP2;ratioP2
10677;SDS011;5387;48.722;9.110;2024-03-17T00:01:36;7.53;;;4.20;;
10677;SDS011;5387;48.722;9.110;2024-03-17T00:04:02;6.60;;;4.57;;
10677;SDS011;5387;48.722;9.110;2024-03-17T00:06:30;6.00;;;4.17;;
10677;SDS011;5387;48.722;9.110;2024-03-17T00:08:56;8.87;;;4.10;;
10677;SDS011;5387;48.722;9.110;2024-03-17T00:11:22;4.53;;;3.87;;
10677;SDS011;5387;48.722;9.110;2024-03-17T00:13:48;7.60;;;4.33;;
10677;SDS011;5387;48.722;9.110;2024-03-17T00:16:15;4.20;;;3.80;;
10677;SDS011;5387;48.722;9.110;2024-03-17T00:18:43;5.60;;;3.83;;
10677;SDS011;5387;48.722;9.110;2024-03-17T00:21:11;6.30;;;4.30;;
10677;SDS011;5387;48.722;9.110;2024-03-17T00:23:38;7.83;;;4.73;;
10677;SDS011;5387;48.722;9.110;2024-03-17T00:26:05;7.70;;;4.17;;
10677;SDS011;5387;48.722;9.110;2024-03-17T00:28:31;8.63;;;4.80;;
10677;SDS011;5387;48.722;9.110;2024-03-17T00:30:58;5.73;;;3.80;;
10677;SDS011;5387;48.722;9.110;2024-03-17T00:33:23;6.63;;;3.90;;
10677;SDS011;5387;48.722;9.110;2024-03-17T00:35:51;6.53;;;3.67;;
10677;SDS011;5387;48.722;9.110;2024-03-17T00:38:16;6.10;;;4.33;;
10677;SDS011;5387;48.722;9.110;2024-03-17T00:40:44;5.87;;;4.00;;
10677;SDS011;5387;48.722;9.110;2024-03-17T00:43:12;8.43;;;4.93;;
10677;SDS011;5387;48.722;9.110;2024-03-17T00:45:39;12.73;;;5.70;;
10677;SDS011;5387;48.722;9.110;2024-03-17T00:48:05;9.13;;;4.90;;
10677;SDS011;5387;48.722;9.110;2024-03-17T00:50:32;5.90;;;3.90;;
10677;SDS011;5387;48.722;9.110;2024-03-17T00:52:58;5.23;;;3.80;;
10677;SDS011;5387;48.722;9.110;2024-03-17T00:55:25;6.90;;;4.37;;
10677;SDS011;5387;48.722;9.110;2024-03-17T00:57:52;6.30;;;4.20;;
10677;SDS011;5387;48.722;9.110;2024-03-17T01:00:19;6.30;;;4.00;;
10677;SDS011;5387;48.722;9.110;2024-03-17T01:02:45;6.77;;;3.97;;
10677;SDS011;5387;48.722;9.110;2024-03-17T01:05:12;8.70;;;3.50;;
10677;SDS011;5387;48.722;9.110;2024-03-17T01:07:38;6.53;;;3.93;;
10677;SDS011;5387;48.722;9.110;2024-03-17T01:10:05;6.40;;;4.43;;
10677;SDS011;5387;48.722;9.110;2024-03-17T01:12:33;6.93;;;3.90;;
10677;SDS011;5387;48.722;9.110;2024-03-17T01:15:02;6.03;;;4.27;;
10677;SDS011;5387;48.722;9.110;2024-03-17T01:17:29;7.53;;;4.63;;
10677;SDS011;5387;48.722;9.110;2024-03-17T01:19:56;6.40;;;4.40;;
10677;SDS011;5387;48.722;9.110;2024-03-17T01:22:21;8.17;;;4.20;;
10677;SDS011;5387;48.722;9.110;2024-03-17T01:24:48;7.40;;;3.90;;
10677;SDS011;5387;48.722;9.110;2024-03-17T01:27:14;6.50;;;4.53;;
10677;SDS011;5387;48.722;9.110;2024-03-17T01:29:41;5.70;;;3.87;;
10677;SDS011;5387;48.722;9.110;2024-03-17T01:32:08;4.77;;;3.77;;
10677;SDS011;5387;48.722;9.110;2024-03-17T01:34:36;6.17;;;4.47;;
10677;SDS011;5387;48.722;9.110;2024-03-17T01:37:01;6.13;;;4.30;;
10677;SDS011;5387;48.722;9.110;2024-03-17T01:39:29;18.10;;;4.67;;
10677;SDS011;5387;48.722;9.110;2024-03-17T01:41:55;7.70;;;4.63;;
10677;SDS011;5387;48.722;9.110;2024-03-17T01:44:24;6.27;;;4.20;;
10677;SDS011;5387;48.722;9.110;2024-03-17T01:46:51;6.53;;;4.70;;
10677;SDS011;5387;48.722;9.110;2024-03-17T01:49:20;5.70;;;4.30;;
10677;SDS011;5387;48.722;9.110;2024-03-17T01:51:47;6.13;;;4.67;;
10677;SDS011;5387;48.722;9.110;2024-03-17T01:54:14;9.23;;;4.13;;
10677;SDS011;5387;48.722;9.110;2024-03-17T01:56:42;14.43;;;4.60;;
10677;SDS011;5387;48.722;9.110;2024-03-17T01:59:10;6.10;;;4.60;;
10677;SDS011;5387;48.722;9.110;2024-03-17T02:01:36;6.37;;;4.33;;
10677;SDS011;5387;48.722;9.110;2024-03-17T02:04:03;6.70;;;4.50;;
10677;SDS011;5387;48.722;9.110;2024-03-17T02:06:31;8.00;;;4.70;;
10677;SDS011;5387;48.722;9.110;2024-03-17T02:08:58;5.57;;;4.37;;
10677;SDS011;5387;48.722;9.110;2024-03-17T02:11:25;8.40;;;4.43;;
10677;SDS011;5387;48.722;9.110;2024-03-17T02:13:53;6.73;;;4.13;;
10677;SDS011;5387;48.722;9.110;2024-03-17T02:16:20;7.33;;;4.30;;
10677;SDS011;5387;48.722;9.110;2024-03-17T02:18:47;5.77;;;4.00;;
10677;SDS011;5387;48.722;9.110;2024-03-17T02:21:13;8.23;;;4.53;;
10677;SDS011;5387;48.722;9.110;2024-03-17T02:23:42;7.97;;;4.67;;
10677;SDS011;5387;48.722;9.110;2024-03-17T02:26:08;6.93;;;4.67;;
10677;SDS011;5387;48.722;9.110;2024-03-17T02:28:39;6.97;;;4.53;;
10677;SDS011;5387;48.722;9.110;2024-03-17T02:31:07;6.87;;;4.10;;
10677;SDS011;5387;48.722;9.110;2024-03-17T02:33:35;8.57;;;3.97;;
10677;SDS011;5387;48.722;9.110;2024-03-17T02:36:00;8.33;;;4.83;;
10677;SDS011;5387;48.722;9.110;2024-03-17T02:38:29;7.13;;;4.90;;
10677;SDS011;5387;48.722;9.110;2024-03-17T02:41:14;6.27;;;4.03;;
10677;SDS011;5387;48.722;9.110;2024-03-17T02:43:41;5.57;;;4.00;;
10677;SDS011;5387;48.722;9.110;2024-03-17T02:46:10;7.10;;;4.60;;
10677;SDS011;5387;48.722;9.110;2024-03-17T02:48:38;11.90;;;5.20;;
10677;SDS011;5387;48.722;9.110;2024-03-17T02:51:09;5.97;;;4.70;;
10677;SDS011;5387;48.722;9.110;2024-03-17T02:53:37;13.37;;;7.40;;
10677;SDS011;5387;48.722;9.110;2024-03-17T02:56:04;11.50;;;6.63;;
10677;SDS011;5387;48.722;9.110;2024-03-17T02:58:33;13.33;;;7.73;;
10677;SDS011;5387;48.722;9.110;2024-03-17T03:01:00;10.17;;;7.47;;
10677;SDS011;5387;48.722;9.110;2024-03-17T03:03:27;11.70;;;6.93;;
10677;SDS011;5387;48.722;9.110;2024-03-17T03:05:54;10.70;;;6.50;;
10677;SDS011;5387;48.722;9.110;2024-03-17T03:08:23;10.57;;;7.40;;
10677;SDS011;5387;48.722;9.110;2024-03-17T03:10:50;10.40;;;6.43;;
10677;SDS011;5387;48.722;9.110;2024-03-17T03:13:17;11.87;;;6.80;;
10677;SDS011;5387;48.722;9.110;2024-03-17T03:15:47;11.97;;;6.00;;
10677;SDS011;5387;48.722;9.110;2024-03-17T03:18:13;13.43;;;6.53;;
10677;SDS011;5387;48.722;9.110;2024-03-17T03:20:39;10.10;;;6.47;;
10677;SDS011;5387;48.722;9.110;2024-03-17T03:23:06;9.93;;;6.03;;
10677;SDS011;5387;48.722;9.110;2024-03-17T03:25:33;14.53;;;7.27;;
10677;SDS011;5387;48.722;9.110;2024-03-17T03:28:00;12.80;;;7.17;;
10677;SDS011;5387;48.722;9.110;2024-03-17T03:30:28;11.23;;;5.97;;
10677;SDS011;5387;48.722;9.110;2024-03-17T03:32:56;10.77;;;7.13;;
10677;SDS011;5387;48.722;9.110;2024-03-17T03:35:23;10.30;;;6.40;;
10677;SDS011;5387;48.722;9.110;2024-03-17T03:37:52;10.60;;;6.93;;
10677;SDS011;5387;48.722;9.110;2024-03-17T03:40:18;12.83;;;6.93;;
10677;SDS011;5387;48.722;9.110;2024-03-17T03:42:46;11.43;;;6.33;;
10677;SDS011;5387;48.722;9.110;2024-03-17T03:45:13;17.27;;;6.17;;
10677;SDS011;5387;48.722;9.110;2024-03-17T03:47:40;9.40;;;6.07;;
10677;SDS011;5387;48.722;9.110;2024-03-17T03:50:09;11.37;;;5.43;;
10677;SDS011;5387;48.722;9.110;2024-03-17T03:52:36;9.13;;;5.37;;
10677;SDS011;5387;48.722;9.110;2024-03-17T03:55:03;9.60;;;6.13;;
10677;SDS011;5387;48.722;9.110;2024-03-17T03:57:32;10.53;;;6.93;;
10677;SDS011;5387;48.722;9.110;2024-03-17T03:59:59;10.03;;;6.23;;
10677;SDS011;5387;48.722;9.110;2024-03-17T04:02:30;7.27;;;5.10;;
10677;SDS011;5387;48.722;9.110;2024-03-17T04:04:59;10.47;;;6.63;;
10677;SDS011;5387;48.722;9.110;2024-03-17T04:07:27;7.43;;;5.87;;
10677;SDS011;5387;48.722;9.110;2024-03-17T04:09:54;7.80;;;5.37;;
10677;SDS011;5387;48.722;9.110;2024-03-17T04:12:21;10.57;;;6.57;;
10677;SDS011;5387;48.722;9.110;2024-03-17T04:14:48;10.93;;;6.10;;
10677;SDS011;5387;48.722;9.110;2024-03-17T04:17:17;10.17;;;6.40;;
10677;SDS011;5387;48.722;9.110;2024-03-17T04:19:46;9.50;;;6.47;;
10677;SDS011;5387;48.722;9.110;2024-03-17T04:22:13;8.63;;;5.97;;
10677;SDS011;5387;48.722;9.110;2024-03-17T04:24:42;10.97;;;7.33;;
10677;SDS011;5387;48.722;9.110;2024-03-17T04:27:09;14.20;;;6.57;;
10677;SDS011;5387;48.722;9.110;2024-03-17T04:29:36;9.57;;;6.60;;
10677;SDS011;5387;48.722;9.110;2024-03-17T04:32:03;9.30;;;6.23;;
10677;SDS011;5387;48.722;9.110;2024-03-17T04:34:30;13.10;;;7.03;;
10677;SDS011;5387;48.722;9.110;2024-03-17T04:36:57;8.70;;;5.30;;
10677;SDS011;5387;48.722;9.110;2024-03-17T04:39:24;9.93;;;6.30;;
10677;SDS011;5387;48.722;9.110;2024-03-17T04:41:53;7.00;;;5.40;;
10677;SDS011;5387;48.722;9.110;2024-03-17T04:44:20;13.07;;;6.17;;
10677;SDS011;5387;48.722;9.110;2024-03-17T04:46:46;8.47;;;5.90;;
10677;SDS011;5387;48.722;9.110;2024-03-17T04:49:13;11.13;;;6.17;;
10677;SDS011;5387;48.722;9.110;2024-03-17T04:51:40;10.87;;;6.70;;
10677;SDS011;5387;48.722;9.110;2024-03-17T04:54:07;10.33;;;6.43;;
10677;SDS011;5387;48.722;9.110;2024-03-17T04:56:34;10.27;;;5.83;;
10677;SDS011;5387;48.722;9.110;2024-03-17T04:59:02;9.13;;;5.80;;
10677;SDS011;5387;48.722;9.110;2024-03-17T05:01:30;13.30;;;6.43;;
10677;SDS011;5387;48.722;9.110;2024-03-17T05:04:01;12.97;;;6.73;;
10677;SDS011;5387;48.722;9.110;2024-03-17T05:06:29;13.97;;;6.50;;
10677;SDS011;5387;48.722;9.110;2024-03-17T05:08:56;12.43;;;7.13;;
10677;SDS011;5387;48.722;9.110;2024-03-17T05:11:23;12.90;;;7.33;;
10677;SDS011;5387;48.722;9.110;2024-03-17T05:13:50;15.00;;;7.20;;
10677;SDS011;5387;48.722;9.110;2024-03-17T05:16:18;11.57;;;5.90;;
10677;SDS011;5387;48.722;9.110;2024-03-17T05:18:48;12.80;;;6.43;;
10677;SDS011;5387;48.722;9.110;2024-03-17T05:21:15;10.07;;;6.33;;
10677;SDS011;5387;48.722;9.110;2024-03-17T05:23:42;13.23;;;7.13;;
10677;SDS011;5387;48.722;9.110;2024-03-17T05:26:09;12.00;;;6.97;;
10677;SDS011;5387;48.722;9.110;2024-03-17T05:28:35;9.50;;;6.77;;
10677;SDS011;5387;48.722;9.110;2024-03-17T05:31:02;11.00;;;6.67;;
10677;SDS011;5387;48.722;9.110;2024-03-17T05:33:31;10.27;;;6.47;;
10677;SDS011;5387;48.722;9.110;2024-03-17T05:35:58;20.53;;;12.23;;
10677;SDS011;5387;48.722;9.110;2024-03-17T05:38:27;12.43;;;7.87;;
10677;SDS011;5387;48.722;9.110;2024-03-17T05:40:55;9.73;;;6.73;;
10677;SDS011;5387;48.722;9.110;2024-03-17T05:43:22;14.90;;;7.63;;
10677;SDS011;5387;48.722;9.110;2024-03-17T05:45:50;12.03;;;6.83;;
10677;SDS011;5387;48.722;9.110;2024-03-17T05:48:17;12.40;;;7.17;;
10677;SDS011;5387;48.722;9.110;2024-03-17T05:50:45;12.13;;;6.90;;
10677;SDS011;5387;48.722;9.110;2024-03-17T05:53:12;12.77;;;6.93;;
10677;SDS011;5387;48.722;9.110;2024-03-17T05:55:39;14.57;;;7.13;;
10677;SDS011;5387;48.722;9.110;2024-03-17T05:58:08;10.27;;;6.67;;
10677;SDS011;5387;48.722;9.110;2024-03-17T06:00:35;11.60;;;6.80;;
10677;SDS011;5387;48.722;9.110;2024-03-17T06:03:02;11.43;;;7.40;;
10677;SDS011;5387;48.722;9.110;2024-03-17T06:05:31;10.60;;;6.07;;
10677;SDS011;5387;48.722;9.110;2024-03-17T06:08:00;16.00;;;6.40;;
10677;SDS011;5387;48.722;9.110;2024-03-17T06:10:28;14.17;;;6.07;;
10677;SDS011;5387;48.722;9.110;2024-03-17T06:12:55;14.67;;;7.27;;
10677;SDS011;5387;48.722;9.110;2024-03-17T06:15:22;10.47;;;6.03;;
10677;SDS011;5387;48.722;9.110;2024-03-17T06:17:49;16.63;;;8.00;;
10677;SDS011;5387;48.722;9.110;2024-03-17T06:20:16;13.07;;;7.70;;
10677;SDS011;5387;48.722;9.110;2024-03-17T06:22:43;14.47;;;8.23;;
10677;SDS011;5387;48.722;9.110;2024-03-17T06:25:12;10.97;;;7.37;;
10677;SDS011;5387;48.722;9.110;2024-03-17T06:27:39;13.33;;;8.30;;
10677;SDS011;5387;48.722;9.110;2024-03-17T06:30:06;14.03;;;8.23;;
10677;SDS011;5387;48.722;9.110;2024-03-17T06:32:38;13.50;;;7.90;;
10677;SDS011;5387;48.722;9.110;2024-03-17T06:35:06;12.57;;;8.30;;
10677;SDS011;5387;48.722;9.110;2024-03-17T06:37:33;13.53;;;9.00;;
10677;SDS011;5387;48.722;9.110;2024-03-17T06:40:00;19.23;;;9.67;;
10677;SDS011;5387;48.722;9.110;2024-03-17T06:42:29;15.07;;;8.73;;
10677;SDS011;5387;48.722;9.110;2024-03-17T06:44:56;14.87;;;9.40;;
10677;SDS011;5387;48.722;9.110;2024-03-17T06:47:23;16.27;;;9.37;;
10677;SDS011;5387;48.722;9.110;2024-03-17T06:49:50;12.67;;;8.57;;
10677;SDS011;5387;48.722;9.110;2024-03-17T06:52:17;12.87;;;8.93;;
10677;SDS011;5387;48.722;9.110;2024-03-17T06:54:44;13.67;;;9.03;;
10677;SDS011;5387;48.722;9.110;2024-03-17T06:57:14;11.97;;;8.13;;
10677;SDS011;5387;48.722;9.110;2024-03-17T06:59:43;13.67;;;7.93;;
10677;SDS011;5387;48.722;9.110;2024-03-17T07:02:11;14.07;;;8.57;;
10677;SDS011;5387;48.722;9.110;2024-03-17T07:04:40;13.70;;;8.00;;
10677;SDS011;5387;48.722;9.110;2024-03-17T07:07:08;12.10;;;8.37;;
10677;SDS011;5387;48.722;9.110;2024-03-17T07:09:34;13.63;;;8.97;;
10677;SDS011;5387;48.722;9.110;2024-03-17T07:12:01;13.67;;;9.13;;
10677;SDS011;5387;48.722;9.110;2024-03-17T07:14:28;12.07;;;8.23;;
10677;SDS011;5387;48.722;9.110;2024-03-17T07:16:58;14.23;;;8.13;;
10677;SDS011;5387;48.722;9.110;2024-03-17T07:19:24;11.43;;;7.57;;
10677;SDS011;5387;48.722;9.110;2024-03-17T07:21:51;9.60;;;7.20;;
10677;SDS011;5387;48.722;9.110;2024-03-17T07:24:19;11.43;;;7.90;;
10677;SDS011;5387;48.722;9.110;2024-03-17T07:26:47;10.93;;;7.43;;
10677;SDS011;5387;48.722;9.110;2024-03-17T07:29:14;11.93;;;7.43;;
10677;SDS011;5387;48.722;9.110;2024-03-17T07:31:41;10.53;;;8.00;;
10677;SDS011;5387;48.722;9.110;2024-03-17T07:34:09;11.67;;;8.33;;
10677;SDS011;5387;48.722;9.110;2024-03-17T07:36:36;14.07;;;8.20;;
10677;SDS011;5387;48.722;9.110;2024-03-17T07:39:03;10.50;;;8.17;;
10677;SDS011;5387;48.722;9.110;2024-03-17T07:41:30;12.73;;;8.83;;
10677;SDS011;5387;48.722;9.110;2024-03-17T07:43:58;11.87;;;8.50;;
10677;SDS011;5387;48.722;9.110;2024-03-17T07:46:25;12.73;;;8.60;;
10677;SDS011;5387;48.722;9.110;2024-03-17T07:48:51;12.10;;;8.13;;
10677;SDS011;5387;48.722;9.110;2024-03-17T07:51:20;9.30;;;7.03;;
10677;SDS011;5387;48.722;9.110;2024-03-17T07:53:47;10.20;;;7.13;;
10677;SDS011;5387;48.722;9.110;2024-03-17T07:56:15;15.67;;;8.27;;
10677;SDS011;5387;48.722;9.110;2024-03-17T07:58:43;10.50;;;7.93;;
10677;SDS011;5387;48.722;9.110;2024-03-17T08:01:12;9.90;;;7.03;;
10677;SDS011;5387;48.722;9.110;2024-03-17T08:03:41;6.87;;;5.60;;
10677;SDS011;5387;48.722;9.110;2024-03-17T08:06:11;11.30;;;6.93;;
10677;SDS011;5387;48.722;9.110;2024-03-17T08:08:40;9.90;;;7.63;;
10677;SDS011;5387;48.722;9.110;2024-03-17T08:11:06;9.83;;;7.10;;
10677;SDS011;5387;48.722;9.110;2024-03-17T08:13:33;8.00;;;6.23;;
10677;SDS011;5387;48.722;9.110;2024-03-17T08:16:00;9.17;;;6.63;;
10677;SDS011;5387;48.722;9.110;2024-03-17T08:18:28;10.83;;;6.93;;
10677;SDS011;5387;48.722;9.110;2024-03-17T08:20:56;9.37;;;6.90;;
10677;SDS011;5387;48.722;9.110;2024-03-17T08:23:23;9.93;;;6.87;;
10677;SDS011;5387;48.722;9.110;2024-03-17T08:25:54;9.17;;;5.90;;
10677;SDS011;5387;48.722;9.110;2024-03-17T08:28:22;8.13;;;6.23;;
10677;SDS011;5387;48.722;9.110;2024-03-17T08:30:52;9.80;;;5.80;;
10677;SDS011;5387;48.722;9.110;2024-03-17T08:33:20;10.43;;;6.60;;
10677;SDS011;5387;48.722;9.110;2024-03-17T08:35:53;8.20;;;6.63;;
10677;SDS011;5387;48.722;9.110;2024-03-17T08:38:21;9.80;;;6.83;;
10677;SDS011;5387;48.722;9.110;2024-03-17T08:40:49;9.40;;;6.63;;
10677;SDS011;5387;48.722;9.110;2024-03-17T08:43:17;7.93;;;6.30;;
10677;SDS011;5387;48.722;9.110;2024-03-17T08:45:44;10.43;;;6.83;;
10677;SDS011;5387;48.722;9.110;2024-03-17T08:48:11;9.83;;;6.70;;
10677;SDS011;5387;48.722;9.110;2024-03-17T08:50:37;8.63;;;6.83;;
10677;SDS011;5387;48.722;9.110;2024-03-17T08:53:05;9.20;;;6.80;;
10677;SDS011;5387;48.722;9.110;2024-03-17T08:55:32;9.18;;;6.85;;
10677;SDS011;5387;48.722;9.110;2024-03-17T08:57:59;9.33;;;6.63;;
10677;SDS011;5387;48.722;9.110;2024-03-17T09:00:27;10.87;;;6.30;;
10677;SDS011;5387;48.722;9.110;2024-03-17T09:02:55;9.13;;;5.30;;
10677;SDS011;5387;48.722;9.110;2024-03-17T09:05:22;5.83;;;5.03;;
10677;SDS011;5387;48.722;9.110;2024-03-17T09:07:49;4.57;;;3.53;;
10677;SDS011;5387;48.722;9.110;2024-03-17T09:10:15;7.43;;;3.73;;
10677;SDS011;5387;48.722;9.110;2024-03-17T09:12:42;5.93;;;4.13;;
10677;SDS011;5387;48.722;9.110;2024-03-17T09:15:12;6.27;;;3.57;;
10677;SDS011;5387;48.722;9.110;2024-03-17T09:17:41;4.40;;;3.80;;
10677;SDS011;5387;48.722;9.110;2024-03-17T09:20:09;4.27;;;3.87;;
10677;SDS011;5387;48.722;9.110;2024-03-17T09:22:39;5.43;;;3.73;;
10677;SDS011;5387;48.722;9.110;2024-03-17T09:25:06;3.83;;;3.53;;
10677;SDS011;5387;48.722;9.110;2024-03-17T09:27:34;5.73;;;4.30;;
10677;SDS011;5387;48.722;9.110;2024-03-17T09:30:02;6.70;;;4.33;;
10677;SDS011;5387;48.722;9.110;2024-03-17T09:32:31;7.27;;;4.20;;
10677;SDS011;5387;48.722;9.110;2024-03-17T09:34:59;5.43;;;3.80;;
10677;SDS011;5387;48.722;9.110;2024-03-17T09:37:26;5.80;;;3.30;;
10677;SDS011;5387;48.722;9.110;2024-03-17T09:39:56;5.97;;;3.45;;
10677;SDS011;5387;48.722;9.110;2024-03-17T09:42:23;4.83;;;3.50;;
10677;SDS011;5387;48.722;9.110;2024-03-17T09:44:50;5.50;;;3.60;;
10677;SDS011;5387;48.722;9.110;2024-03-17T09:47:21;3.60;;;3.30;;
10677;SDS011;5387;48.722;9.110;2024-03-17T09:49:49;5.93;;;3.17;;
10677;SDS011;5387;48.722;9.110;2024-03-17T09:52:20;4.63;;;2.80;;
10677;SDS011;5387;48.722;9.110;2024-03-17T09:54:53;5.00;;;2.40;;
10677;SDS011;5387;48.722;9.110;2024-03-17T09:57:24;6.65;;;3.08;;
10677;SDS011;5387;48.722;9.110;2024-03-17T09:59:51;2.78;;;2.40;;
10677;SDS011;5387;48.722;9.110;2024-03-17T10:02:20;2.65;;;2.45;;
10677;SDS011;5387;48.722;9.110;2024-03-17T10:04:47;3.15;;;2.47;;
10677;SDS011;5387;48.722;9.110;2024-03-17T10:07:14;3.80;;;2.58;;
10677;SDS011;5387;48.722;9.110;2024-03-17T10:09:43;2.83;;;2.50;;
10677;SDS011;5387;48.722;9.110;2024-03-17T10:12:26;4.18;;;2.35;;
10677;SDS011;5387;48.722;9.110;2024-03-17T10:15:00;4.05;;;2.47;;
10677;SDS011;5387;48.722;9.110;2024-03-17T10:17:30;3.72;;;2.38;;
10677;SDS011;5387;48.722;9.110;2024-03-17T10:20:13;6.53;;;2.67;;
10677;SDS011;5387;48.722;9.110;2024-03-17T10:25:41;2.42;;;2.22;;
10677;SDS011;5387;48.722;9.110;2024-03-17T10:28:10;4.78;;;2.60;;
10677;SDS011;5387;48.722;9.110;2024-03-17T10:30:37;3.75;;;2.80;;
10677;SDS011;5387;48.722;9.110;2024-03-17T10:33:05;4.57;;;2.80;;
10677;SDS011;5387;48.722;9.110;2024-03-17T10:35:34;4.45;;;3.15;;
10677;SDS011;5387;48.722;9.110;2024-03-17T10:38:04;6.00;;;2.92;;
10677;SDS011;5387;48.722;9.110;2024-03-17T10:40:32;4.28;;;3.03;;
10677;SDS011;5387;48.722;9.110;2024-03-17T10:43:02;5.93;;;2.95;;
10677;SDS011;5387;48.722;9.110;2024-03-17T10:45:29;4.15;;;3.50;;
10677;SDS011;5387;48.722;9.110;2024-03-17T10:48:01;4.68;;;3.40;;
10677;SDS011;5387;48.722;9.110;2024-03-17T10:50:30;3.97;;;3.40;;
10677;SDS011;5387;48.722;9.110;2024-03-17T10:52:58;6.40;;;3.17;;
10677;SDS011;5387;48.722;9.110;2024-03-17T10:55:30;4.30;;;3.38;;
10677;SDS011;5387;48.722;9.110;2024-03-17T10:58:07;3.42;;;3.00;;
10677;SDS011;5387;48.722;9.110;2024-03-17T11:00:48;4.38;;;3.13;;
10677;SDS011;5387;48.722;9.110;2024-03-17T11:03:17;2.88;;;2.55;;
10677;SDS011;5387;48.722;9.110;2024-03-17T11:05:46;5.45;;;2.85;;
10677;SDS011;5387;48.722;9.110;2024-03-17T11:08:15;2.70;;;2.50;;
10677;SDS011;5387;48.722;9.110;2024-03-17T11:10:48;3.92;;;3.42;;
10677;SDS011;5387;48.722;9.110;2024-03-17T11:13:25;4.22;;;2.80;;
10677;SDS011;5387;48.722;9.110;2024-03-17T11:15:53;3.45;;;2.92;;
10677;SDS011;5387;48.722;9.110;2024-03-17T11:18:36;3.05;;;2.63;;
10677;SDS011;5387;48.722;9.110;2024-03-17T11:21:04;4.82;;;2.80;;
10677;SDS011;5387;48.722;9.110;2024-03-17T11:23:40;3.03;;;2.47;;
10677;SDS011;5387;48.722;9.110;2024-03-17T11:26:07;3.45;;;2.88;;
10677;SDS011;5387;48.722;9.110;2024-03-17T11:28:45;4.20;;;2.13;;
10677;SDS011;5387;48.722;9.110;2024-03-17T11:33:58;3.70;;;2.50;;
10677;SDS011;5387;48.722;9.110;2024-03-17T11:36:35;2.47;;;2.22;;
10677;SDS011;5387;48.722;9.110;2024-03-17T11:39:02;7.35;;;4.07;;
10677;SDS011;5387;48.722;9.110;2024-03-17T11:41:38;15.85;;;2.15;;
10677;SDS011;5387;48.722;9.110;2024-03-17T11:44:18;6.55;;;2.70;;
10677;SDS011;5387;48.722;9.110;2024-03-17T11:46:52;4.32;;;2.53;;
10677;SDS011;5387;48.722;9.110;2024-03-17T11:49:20;2.22;;;2.03;;
10677;SDS011;5387;48.722;9.110;2024-03-17T11:51:48;2.47;;;2.10;;
10677;SDS011;5387;48.722;9.110;2024-03-17T11:54:15;2.58;;;2.03;;
10677;SDS011;5387;48.722;9.110;2024-03-17T11:56:46;1.83;;;1.50;;
10677;SDS011;5387;48.722;9.110;2024-03-17T11:59:15;2.20;;;1.95;;
10677;SDS011;5387;48.722;9.110;2024-03-17T12:01:43;3.45;;;2.03;;
10677;SDS011;5387;48.722;9.110;2024-03-17T12:04:10;4.22;;;2.28;;
10677;SDS011;5387;48.722;9.110;2024-03-17T12:06:39;2.78;;;1.88;;
10677;SDS011;5387;48.722;9.110;2024-03-17T12:09:10;2.65;;;1.60;;
10677;SDS011;5387;48.722;9.110;2024-03-17T12:11:45;6.45;;;2.10;;
10677;SDS011;5387;48.722;9.110;2024-03-17T12:14:16;2.85;;;1.90;;
10677;SDS011;5387;48.722;9.110;2024-03-17T12:16:52;1.95;;;1.63;;
10677;SDS011;5387;48.722;9.110;2024-03-17T12:19:19;9.38;;;5.80;;
10677;SDS011;5387;48.722;9.110;2024-03-17T12:21:47;2.25;;;1.80;;
10677;SDS011;5387;48.722;9.110;2024-03-17T12:24:15;1.95;;;1.80;;
10677;SDS011;5387;48.722;9.110;2024-03-17T12:26:43;2.38;;;1.60;;
10677;SDS011;5387;48.722;9.110;2024-03-17T12:29:27;2.50;;;1.50;;
10677;SDS011;5387;48.722;9.110;2024-03-17T12:31:58;2.67;;;1.73;;
10677;SDS011;5387;48.722;9.110;2024-03-17T12:34:27;3.40;;;2.00;;
10677;SDS011;5387;48.722;9.110;2024-03-17T12:36:55;1.63;;;1.52;;
10677;SDS011;5387;48.722;9.110;2024-03-17T12:39:23;5.65;;;2.85;;
10677;SDS011;5387;48.722;9.110;2024-03-17T12:42:00;1.85;;;1.42;;
10677;SDS011;5387;48.722;9.110;2024-03-17T12:44:31;1.90;;;1.58;;
10677;SDS011;5387;48.722;9.110;2024-03-17T12:46:59;2.33;;;1.42;;
10677;SDS011;5387;48.722;9.110;2024-03-17T12:49:28;1.30;;;1.20;;
10677;SDS011;5387;48.722;9.110;2024-03-17T12:51:55;3.60;;;1.83;;
10677;SDS011;5387;48.722;9.110;2024-03-17T12:54:21;2.70;;;1.35;;
10677;SDS011;5387;48.722;9.110;2024-03-17T12:56:49;1.50;;;1.40;;
10677;SDS011;5387;48.722;9.110;2024-03-17T12:59:40;3.92;;;1.80;;
10677;SDS011;5387;48.722;9.110;2024-03-17T13:02:25;4.57;;;1.60;;
10677;SDS011;5387;48.722;9.110;2024-03-17T13:07:48;3.97;;;1.75;;
10677;SDS011;5387;48.722;9.110;2024-03-17T13:10:16;2.40;;;1.50;;
10677;SDS011;5387;48.722;9.110;2024-03-17T13:12:43;2.55;;;1.48;;
10677;SDS011;5387;48.722;9.110;2024-03-17T13:15:12;5.63;;;1.70;;
10677;SDS011;5387;48.722;9.110;2024-03-17T13:17:41;1.40;;;1.30;;
10677;SDS011;5387;48.722;9.110;2024-03-17T13:20:10;3.25;;;1.50;;
10677;SDS011;5387;48.722;9.110;2024-03-17T13:22:40;4.00;;;1.80;;
10677;SDS011;5387;48.722;9.110;2024-03-17T13:25:12;1.65;;;1.50;;
10677;SDS011;5387;48.722;9.110;2024-03-17T13:27:41;1.55;;;1.20;;
10677;SDS011;5387;48.722;9.110;2024-03-17T13:30:08;1.48;;;1.38;;
10677;SDS011;5387;48.722;9.110;2024-03-17T13:32:37;3.30;;;1.52;;
10677;SDS011;5387;48.722;9.110;2024-03-17T13:35:04;9.95;;;5.90;;
10677;SDS011;5387;48.722;9.110;2024-03-17T13:37:33;1.35;;;1.25;;
10677;SDS011;5387;48.722;9.110;2024-03-17T13:40:00;3.72;;;2.15;;
10677;SDS011;5387;48.722;9.110;2024-03-17T13:42:29;6.60;;;1.90;;
10677;SDS011;5387;48.722;9.110;2024-03-17T13:44:56;3.63;;;1.52;;
10677;SDS011;5387;48.722;9.110;2024-03-17T13:47:23;2.05;;;1.30;;
10677;SDS011;5387;48.722;9.110;2024-03-17T13:49:51;1.65;;;1.55;;
10677;SDS011;5387;48.722;9.110;2024-03-17T13:52:17;1.52;;;1.30;;
10677;SDS011;5387;48.722;9.110;2024-03-17T13:54:44;3.38;;;1.95;;
10677;SDS011;5387;48.722;9.110;2024-03-17T13:57:11;1.80;;;1.35;;
10677;SDS011;5387;48.722;9.110;2024-03-17T13:59:38;1.33;;;1.30;;
10677;SDS011;5387;48.722;9.110;2024-03-17T14:02:05;1.50;;;1.40;;
10677;SDS011;5387;48.722;9.110;2024-03-17T14:04:37;3.13;;;1.50;;
10677;SDS011;5387;48.722;9.110;2024-03-17T14:07:06;1.75;;;1.42;;
10677;SDS011;5387;48.722;9.110;2024-03-17T14:09:32;4.53;;;2.88;;
10677;SDS011;5387;48.722;9.110;2024-03-17T14:11:59;1.60;;;1.50;;
10677;SDS011;5387;48.722;9.110;2024-03-17T14:14:26;1.42;;;1.33;;
10677;SDS011;5387;48.722;9.110;2024-03-17T14:16:53;3.78;;;1.58;;
10677;SDS011;5387;48.722;9.110;2024-03-17T14:19:19;2.55;;;1.45;;
10677;SDS011;5387;48.722;9.110;2024-03-17T14:21:46;1.73;;;1.52;;
10677;SDS011;5387;48.722;9.110;2024-03-17T14:24:14;3.70;;;3.00;;
10677;SDS011;5387;48.722;9.110;2024-03-17T14:26:41;2.58;;;1.30;;
10677;SDS011;5387;48.722;9.110;2024-03-17T14:29:08;3.28;;;1.58;;
10677;SDS011;5387;48.722;9.110;2024-03-17T14:31:35;2.78;;;1.48;;
10677;SDS011;5387;48.722;9.110;2024-03-17T14:34:02;1.60;;;1.50;;
10677;SDS011;5387;48.722;9.110;2024-03-17T14:36:30;2.78;;;1.20;;
10677;SDS011;5387;48.722;9.110;2024-03-17T14:38:58;2.08;;;1.55;;
10677;SDS011;5387;48.722;9.110;2024-03-17T14:41:28;3.28;;;1.73;;
10677;SDS011;5387;48.722;9.110;2024-03-17T14:43:55;2.67;;;1.45;;
10677;SDS011;5387;48.722;9.110;2024-03-17T14:46:23;1.10;;;1.10;;
10677;SDS011;5387;48.722;9.110;2024-03-17T14:48:50;2.15;;;1.40;;
10677;SDS011;5387;48.722;9.110;2024-03-17T14:51:16;1.10;;;1.10;;
10677;SDS011;5387;48.722;9.110;2024-03-17T14:53:43;5.93;;;1.45;;
10677;SDS011;5387;48.722;9.110;2024-03-17T14:56:14;2.63;;;1.20;;
10677;SDS011;5387;48.722;9.110;2024-03-17T14:58:43;2.95;;;1.40;;
10677;SDS011;5387;48.722;9.110;2024-03-17T15:01:11;1.42;;;1.33;;
10677;SDS011;5387;48.722;9.110;2024-03-17T15:03:38;2.95;;;1.45;;
10677;SDS011;5387;48.722;9.110;2024-03-17T15:06:08;2.00;;;1.20;;
10677;SDS011;5387;48.722;9.110;2024-03-17T15:08:39;3.38;;;1.30;;
10677;SDS011;5387;48.722;9.110;2024-03-17T15:11:06;1.85;;;1.17;;
10677;SDS011;5387;48.722;9.110;2024-03-17T15:13:34;2.05;;;1.23;;